sensor_id;sensor_type;location;lat;lon;timestamp;P1;durP1;ratioP1;P2;durP2;ratioP2
16737;SDS011;17906;47.684;10.806;2022-12-08T00:00:06;9.07;;;4.30;;
16737;SDS011;17906;47.684;10.806;2022-12-08T00:02:33;8.17;;;4.10;;
16737;SDS011;17906;47.684;10.806;2022-12-08T00:05:00;9.07;;;3.93;;
16737;SDS011;17906;47.684;10.806;2022-12-08T00:07:44;9.40;;;4.37;;
16737;SDS011;17906;47.684;10.806;2022-12-08T00:10:30;8.80;;;4.50;;
16737;SDS011;17906;47.684;10.806;2022-12-08T00:12:57;9.80;;;4.67;;
16737;SDS011;17906;47.684;10.806;2022-12-08T00:15:23;9.37;;;4.20;;
16737;SDS011;17906;47.684;10.806;2022-12-08T00:17:50;10.80;;;5.00;;
16737;SDS011;17906;47.684;10.806;2022-12-08T00:20:16;8.40;;;4.33;;
16737;SDS011;17906;47.684;10.806;2022-12-08T00:22:43;9.17;;;4.57;;
16737;SDS011;17906;47.684;10.806;2022-12-08T00:25:10;8.80;;;4.63;;
16737;SDS011;17906;47.684;10.806;2022-12-08T00:27:38;7.70;;;4.17;;
16737;SDS011;17906;47.684;10.806;2022-12-08T00:30:05;8.10;;;4.07;;
16737;SDS011;17906;47.684;10.806;2022-12-08T00:32:33;9.57;;;4.63;;
16737;SDS011;17906;47.684;10.806;2022-12-08T00:34:59;11.33;;;4.93;;
16737;SDS011;17906;47.684;10.806;2022-12-08T00:37:26;11.67;;;4.43;;
16737;SDS011;17906;47.684;10.806;2022-12-08T00:39:53;14.07;;;5.03;;
16737;SDS011;17906;47.684;10.806;2022-12-08T00:42:20;14.33;;;5.80;;
16737;SDS011;17906;47.684;10.806;2022-12-08T00:44:48;10.17;;;4.97;;
16737;SDS011;17906;47.684;10.806;2022-12-08T00:47:14;7.37;;;3.63;;
16737;SDS011;17906;47.684;10.806;2022-12-08T00:49:41;8.73;;;3.83;;
16737;SDS011;17906;47.684;10.806;2022-12-08T00:52:07;7.77;;;3.87;;
16737;SDS011;17906;47.684;10.806;2022-12-08T00:54:34;13.00;;;5.23;;
16737;SDS011;17906;47.684;10.806;2022-12-08T00:57:01;13.07;;;5.00;;
16737;SDS011;17906;47.684;10.806;2022-12-08T00:59:28;7.90;;;4.03;;
16737;SDS011;17906;47.684;10.806;2022-12-08T01:01:56;10.70;;;4.73;;
16737;SDS011;17906;47.684;10.806;2022-12-08T01:04:22;8.53;;;3.97;;
16737;SDS011;17906;47.684;10.806;2022-12-08T01:06:49;9.67;;;4.30;;
16737;SDS011;17906;47.684;10.806;2022-12-08T01:09:16;10.00;;;4.97;;
16737;SDS011;17906;47.684;10.806;2022-12-08T01:11:44;13.07;;;4.77;;
16737;SDS011;17906;47.684;10.806;2022-12-08T01:14:11;8.97;;;4.53;;
16737;SDS011;17906;47.684;10.806;2022-12-08T01:16:38;9.27;;;4.30;;
16737;SDS011;17906;47.684;10.806;2022-12-08T01:19:08;8.80;;;4.50;;
16737;SDS011;17906;47.684;10.806;2022-12-08T01:21:35;8.13;;;3.87;;
16737;SDS011;17906;47.684;10.806;2022-12-08T01:24:02;9.23;;;4.10;;
16737;SDS011;17906;47.684;10.806;2022-12-08T01:26:29;9.10;;;4.40;;
16737;SDS011;17906;47.684;10.806;2022-12-08T01:28:56;9.73;;;4.63;;
16737;SDS011;17906;47.684;10.806;2022-12-08T01:31:22;9.33;;;4.50;;
16737;SDS011;17906;47.684;10.806;2022-12-08T01:33:49;9.33;;;4.40;;
16737;SDS011;17906;47.684;10.806;2022-12-08T01:36:19;10.60;;;4.87;;
16737;SDS011;17906;47.684;10.806;2022-12-08T01:38:46;10.00;;;4.90;;
16737;SDS011;17906;47.684;10.806;2022-12-08T01:41:13;8.20;;;4.27;;
16737;SDS011;17906;47.684;10.806;2022-12-08T01:43:53;9.10;;;4.40;;
16737;SDS011;17906;47.684;10.806;2022-12-08T01:46:22;8.37;;;4.13;;
16737;SDS011;17906;47.684;10.806;2022-12-08T01:48:50;8.13;;;4.00;;
16737;SDS011;17906;47.684;10.806;2022-12-08T01:51:20;10.43;;;4.90;;
16737;SDS011;17906;47.684;10.806;2022-12-08T01:53:48;8.83;;;4.23;;
16737;SDS011;17906;47.684;10.806;2022-12-08T01:56:17;9.47;;;4.47;;
16737;SDS011;17906;47.684;10.806;2022-12-08T01:58:46;8.57;;;3.90;;
16737;SDS011;17906;47.684;10.806;2022-12-08T02:01:16;11.20;;;4.40;;
16737;SDS011;17906;47.684;10.806;2022-12-08T02:03:44;10.00;;;3.93;;
16737;SDS011;17906;47.684;10.806;2022-12-08T02:06:15;8.67;;;4.33;;
16737;SDS011;17906;47.684;10.806;2022-12-08T02:08:45;8.07;;;4.37;;
16737;SDS011;17906;47.684;10.806;2022-12-08T02:11:12;11.03;;;5.07;;
16737;SDS011;17906;47.684;10.806;2022-12-08T02:13:39;9.93;;;3.93;;
16737;SDS011;17906;47.684;10.806;2022-12-08T02:16:09;8.80;;;4.57;;
16737;SDS011;17906;47.684;10.806;2022-12-08T02:18:46;7.43;;;3.83;;
16737;SDS011;17906;47.684;10.806;2022-12-08T02:21:26;11.17;;;5.07;;
16737;SDS011;17906;47.684;10.806;2022-12-08T02:24:01;8.80;;;4.93;;
16737;SDS011;17906;47.684;10.806;2022-12-08T02:29:56;9.33;;;4.47;;
16737;SDS011;17906;47.684;10.806;2022-12-08T02:35:43;10.63;;;4.70;;
16737;SDS011;17906;47.684;10.806;2022-12-08T02:38:20;10.67;;;4.83;;
16737;SDS011;17906;47.684;10.806;2022-12-08T02:40:58;11.23;;;5.20;;
16737;SDS011;17906;47.684;10.806;2022-12-08T02:43:31;10.97;;;4.90;;
16737;SDS011;17906;47.684;10.806;2022-12-08T02:46:04;11.40;;;4.80;;
16737;SDS011;17906;47.684;10.806;2022-12-08T02:48:34;10.70;;;5.40;;
16737;SDS011;17906;47.684;10.806;2022-12-08T02:51:03;10.77;;;5.00;;
16737;SDS011;17906;47.684;10.806;2022-12-08T02:53:30;11.57;;;4.80;;
16737;SDS011;17906;47.684;10.806;2022-12-08T02:56:00;8.40;;;4.63;;
16737;SDS011;17906;47.684;10.806;2022-12-08T02:58:37;8.93;;;4.67;;
16737;SDS011;17906;47.684;10.806;2022-12-08T03:01:18;10.43;;;4.77;;
16737;SDS011;17906;47.684;10.806;2022-12-08T03:04:01;11.53;;;4.87;;
16737;SDS011;17906;47.684;10.806;2022-12-08T03:06:37;10.40;;;4.40;;
16737;SDS011;17906;47.684;10.806;2022-12-08T03:09:13;11.97;;;5.20;;
16737;SDS011;17906;47.684;10.806;2022-12-08T03:11:46;10.67;;;4.90;;
16737;SDS011;17906;47.684;10.806;2022-12-08T03:14:18;9.07;;;4.37;;
16737;SDS011;17906;47.684;10.806;2022-12-08T03:16:48;11.10;;;5.40;;
16737;SDS011;17906;47.684;10.806;2022-12-08T03:19:19;11.13;;;5.53;;
16737;SDS011;17906;47.684;10.806;2022-12-08T03:21:51;9.90;;;4.83;;
16737;SDS011;17906;47.684;10.806;2022-12-08T03:24:24;10.73;;;5.30;;
16737;SDS011;17906;47.684;10.806;2022-12-08T03:26:52;12.53;;;5.60;;
16737;SDS011;17906;47.684;10.806;2022-12-08T03:29:23;12.87;;;5.70;;
16737;SDS011;17906;47.684;10.806;2022-12-08T03:31:53;14.27;;;5.67;;
16737;SDS011;17906;47.684;10.806;2022-12-08T03:34:24;12.47;;;5.43;;
16737;SDS011;17906;47.684;10.806;2022-12-08T03:36:54;13.33;;;6.23;;
16737;SDS011;17906;47.684;10.806;2022-12-08T03:39:21;13.07;;;6.03;;
16737;SDS011;17906;47.684;10.806;2022-12-08T03:41:48;13.47;;;6.00;;
16737;SDS011;17906;47.684;10.806;2022-12-08T03:44:15;13.00;;;5.37;;
16737;SDS011;17906;47.684;10.806;2022-12-08T03:46:41;12.43;;;5.43;;
16737;SDS011;17906;47.684;10.806;2022-12-08T03:49:08;14.03;;;6.07;;
16737;SDS011;17906;47.684;10.806;2022-12-08T03:51:34;12.83;;;6.00;;
16737;SDS011;17906;47.684;10.806;2022-12-08T03:54:03;13.10;;;5.57;;
16737;SDS011;17906;47.684;10.806;2022-12-08T03:56:31;12.67;;;5.63;;
16737;SDS011;17906;47.684;10.806;2022-12-08T03:58:59;12.70;;;6.27;;
16737;SDS011;17906;47.684;10.806;2022-12-08T04:01:26;15.63;;;7.10;;
16737;SDS011;17906;47.684;10.806;2022-12-08T04:03:53;21.90;;;9.03;;
16737;SDS011;17906;47.684;10.806;2022-12-08T04:06:20;17.73;;;7.90;;
16737;SDS011;17906;47.684;10.806;2022-12-08T04:08:47;17.27;;;8.23;;
16737;SDS011;17906;47.684;10.806;2022-12-08T04:11:16;14.57;;;6.93;;
16737;SDS011;17906;47.684;10.806;2022-12-08T04:13:44;18.67;;;7.27;;
16737;SDS011;17906;47.684;10.806;2022-12-08T04:16:13;20.40;;;9.00;;
16737;SDS011;17906;47.684;10.806;2022-12-08T04:18:41;26.13;;;9.47;;
16737;SDS011;17906;47.684;10.806;2022-12-08T04:21:07;22.63;;;10.07;;
16737;SDS011;17906;47.684;10.806;2022-12-08T04:23:34;24.13;;;9.97;;
16737;SDS011;17906;47.684;10.806;2022-12-08T04:26:01;22.33;;;9.17;;
16737;SDS011;17906;47.684;10.806;2022-12-08T04:28:29;19.13;;;7.80;;
16737;SDS011;17906;47.684;10.806;2022-12-08T04:30:55;20.63;;;8.30;;
16737;SDS011;17906;47.684;10.806;2022-12-08T04:33:22;15.83;;;7.33;;
16737;SDS011;17906;47.684;10.806;2022-12-08T04:35:49;20.77;;;8.67;;
16737;SDS011;17906;47.684;10.806;2022-12-08T04:38:16;16.47;;;8.03;;
16737;SDS011;17906;47.684;10.806;2022-12-08T04:40:43;18.67;;;7.80;;
16737;SDS011;17906;47.684;10.806;2022-12-08T04:43:09;19.73;;;8.00;;
16737;SDS011;17906;47.684;10.806;2022-12-08T04:45:39;19.87;;;9.27;;
16737;SDS011;17906;47.684;10.806;2022-12-08T04:48:07;18.33;;;8.47;;
16737;SDS011;17906;47.684;10.806;2022-12-08T04:50:33;23.57;;;8.57;;
16737;SDS011;17906;47.684;10.806;2022-12-08T04:53:00;19.80;;;8.60;;
16737;SDS011;17906;47.684;10.806;2022-12-08T04:55:27;23.10;;;8.93;;
16737;SDS011;17906;47.684;10.806;2022-12-08T04:57:54;24.17;;;9.10;;
16737;SDS011;17906;47.684;10.806;2022-12-08T05:00:20;20.50;;;8.40;;
16737;SDS011;17906;47.684;10.806;2022-12-08T05:02:49;17.67;;;7.80;;
16737;SDS011;17906;47.684;10.806;2022-12-08T05:05:15;17.83;;;8.00;;
16737;SDS011;17906;47.684;10.806;2022-12-08T05:07:42;20.50;;;8.93;;
16737;SDS011;17906;47.684;10.806;2022-12-08T05:10:09;19.13;;;8.07;;
16737;SDS011;17906;47.684;10.806;2022-12-08T05:12:35;19.57;;;8.27;;
16737;SDS011;17906;47.684;10.806;2022-12-08T05:15:02;15.90;;;7.80;;
16737;SDS011;17906;47.684;10.806;2022-12-08T05:17:29;18.30;;;8.00;;
16737;SDS011;17906;47.684;10.806;2022-12-08T05:19:57;18.80;;;8.20;;
16737;SDS011;17906;47.684;10.806;2022-12-08T05:22:24;20.93;;;8.07;;
16737;SDS011;17906;47.684;10.806;2022-12-08T05:24:50;18.33;;;8.63;;
16737;SDS011;17906;47.684;10.806;2022-12-08T05:27:17;22.77;;;9.83;;
16737;SDS011;17906;47.684;10.806;2022-12-08T05:29:44;21.37;;;9.47;;
16737;SDS011;17906;47.684;10.806;2022-12-08T05:32:12;22.87;;;9.30;;
16737;SDS011;17906;47.684;10.806;2022-12-08T05:34:39;20.77;;;8.77;;
16737;SDS011;17906;47.684;10.806;2022-12-08T05:37:07;19.77;;;9.20;;
16737;SDS011;17906;47.684;10.806;2022-12-08T05:39:34;19.93;;;9.90;;
16737;SDS011;17906;47.684;10.806;2022-12-08T05:42:00;23.83;;;9.37;;
16737;SDS011;17906;47.684;10.806;2022-12-08T05:44:27;19.57;;;9.03;;
16737;SDS011;17906;47.684;10.806;2022-12-08T05:46:54;23.80;;;9.87;;
16737;SDS011;17906;47.684;10.806;2022-12-08T05:49:20;24.10;;;9.40;;
16737;SDS011;17906;47.684;10.806;2022-12-08T05:51:47;22.37;;;9.70;;
16737;SDS011;17906;47.684;10.806;2022-12-08T05:54:15;28.37;;;11.60;;
16737;SDS011;17906;47.684;10.806;2022-12-08T05:56:42;29.60;;;12.43;;
16737;SDS011;17906;47.684;10.806;2022-12-08T05:59:09;26.27;;;12.17;;
16737;SDS011;17906;47.684;10.806;2022-12-08T06:01:35;26.03;;;11.77;;
16737;SDS011;17906;47.684;10.806;2022-12-08T06:04:03;26.57;;;11.10;;
16737;SDS011;17906;47.684;10.806;2022-12-08T06:06:30;26.57;;;11.37;;
16737;SDS011;17906;47.684;10.806;2022-12-08T06:09:00;27.47;;;13.47;;
16737;SDS011;17906;47.684;10.806;2022-12-08T06:11:29;25.40;;;11.67;;
16737;SDS011;17906;47.684;10.806;2022-12-08T06:13:57;25.97;;;10.53;;
16737;SDS011;17906;47.684;10.806;2022-12-08T06:16:25;23.10;;;10.07;;
16737;SDS011;17906;47.684;10.806;2022-12-08T06:18:53;24.00;;;9.63;;
16737;SDS011;17906;47.684;10.806;2022-12-08T06:21:20;23.60;;;9.83;;
16737;SDS011;17906;47.684;10.806;2022-12-08T06:23:47;21.13;;;9.67;;
16737;SDS011;17906;47.684;10.806;2022-12-08T06:26:15;20.07;;;8.80;;
16737;SDS011;17906;47.684;10.806;2022-12-08T06:28:44;22.43;;;8.23;;
16737;SDS011;17906;47.684;10.806;2022-12-08T06:31:12;18.20;;;8.43;;
16737;SDS011;17906;47.684;10.806;2022-12-08T06:33:40;19.57;;;8.13;;
16737;SDS011;17906;47.684;10.806;2022-12-08T06:36:08;19.80;;;8.03;;
16737;SDS011;17906;47.684;10.806;2022-12-08T06:38:36;16.83;;;7.67;;
16737;SDS011;17906;47.684;10.806;2022-12-08T06:41:03;17.73;;;7.70;;
16737;SDS011;17906;47.684;10.806;2022-12-08T06:43:30;17.70;;;8.27;;
16737;SDS011;17906;47.684;10.806;2022-12-08T06:45:59;17.03;;;7.80;;
16737;SDS011;17906;47.684;10.806;2022-12-08T06:48:26;15.37;;;7.73;;
16737;SDS011;17906;47.684;10.806;2022-12-08T06:50:53;19.67;;;9.07;;
16737;SDS011;17906;47.684;10.806;2022-12-08T06:53:19;18.23;;;8.13;;
16737;SDS011;17906;47.684;10.806;2022-12-08T06:55:47;18.33;;;7.50;;
16737;SDS011;17906;47.684;10.806;2022-12-08T06:58:17;16.23;;;6.43;;
16737;SDS011;17906;47.684;10.806;2022-12-08T07:00:44;10.57;;;4.93;;
16737;SDS011;17906;47.684;10.806;2022-12-08T07:03:13;11.43;;;5.00;;
16737;SDS011;17906;47.684;10.806;2022-12-08T07:05:41;12.40;;;5.27;;
16737;SDS011;17906;47.684;10.806;2022-12-08T07:08:08;14.20;;;5.97;;
16737;SDS011;17906;47.684;10.806;2022-12-08T07:10:34;12.77;;;5.43;;
16737;SDS011;17906;47.684;10.806;2022-12-08T07:13:01;11.90;;;5.23;;
16737;SDS011;17906;47.684;10.806;2022-12-08T07:15:29;8.70;;;4.70;;
16737;SDS011;17906;47.684;10.806;2022-12-08T07:17:56;6.80;;;3.33;;
16737;SDS011;17906;47.684;10.806;2022-12-08T07:20:23;6.20;;;2.67;;
16737;SDS011;17906;47.684;10.806;2022-12-08T07:22:50;6.57;;;3.00;;
16737;SDS011;17906;47.684;10.806;2022-12-08T07:25:18;7.13;;;3.20;;
16737;SDS011;17906;47.684;10.806;2022-12-08T07:27:45;6.67;;;3.00;;
16737;SDS011;17906;47.684;10.806;2022-12-08T07:30:14;5.47;;;3.00;;
16737;SDS011;17906;47.684;10.806;2022-12-08T07:32:40;9.10;;;3.73;;
16737;SDS011;17906;47.684;10.806;2022-12-08T07:35:07;8.23;;;3.13;;
16737;SDS011;17906;47.684;10.806;2022-12-08T07:37:36;5.47;;;2.90;;
16737;SDS011;17906;47.684;10.806;2022-12-08T07:40:03;6.73;;;3.80;;
16737;SDS011;17906;47.684;10.806;2022-12-08T07:42:31;6.90;;;3.17;;
16737;SDS011;17906;47.684;10.806;2022-12-08T07:44:58;8.57;;;3.60;;
16737;SDS011;17906;47.684;10.806;2022-12-08T07:47:25;5.90;;;3.27;;
16737;SDS011;17906;47.684;10.806;2022-12-08T07:49:51;7.00;;;3.30;;
16737;SDS011;17906;47.684;10.806;2022-12-08T07:52:18;5.93;;;2.97;;
16737;SDS011;17906;47.684;10.806;2022-12-08T07:54:47;6.63;;;3.63;;
16737;SDS011;17906;47.684;10.806;2022-12-08T07:57:14;8.43;;;4.03;;
16737;SDS011;17906;47.684;10.806;2022-12-08T07:59:41;7.70;;;3.23;;
16737;SDS011;17906;47.684;10.806;2022-12-08T08:02:10;7.53;;;2.90;;
16737;SDS011;17906;47.684;10.806;2022-12-08T08:04:41;8.33;;;3.60;;
16737;SDS011;17906;47.684;10.806;2022-12-08T08:07:08;7.80;;;3.90;;
16737;SDS011;17906;47.684;10.806;2022-12-08T08:09:34;10.40;;;4.00;;
16737;SDS011;17906;47.684;10.806;2022-12-08T08:12:02;8.90;;;3.80;;
16737;SDS011;17906;47.684;10.806;2022-12-08T08:14:30;7.73;;;3.50;;
16737;SDS011;17906;47.684;10.806;2022-12-08T08:16:56;9.83;;;3.73;;
16737;SDS011;17906;47.684;10.806;2022-12-08T08:19:23;8.10;;;3.53;;
16737;SDS011;17906;47.684;10.806;2022-12-08T08:21:50;8.27;;;3.40;;
16737;SDS011;17906;47.684;10.806;2022-12-08T08:24:16;5.83;;;2.77;;
16737;SDS011;17906;47.684;10.806;2022-12-08T08:26:44;6.93;;;3.03;;
16737;SDS011;17906;47.684;10.806;2022-12-08T08:29:12;14.03;;;5.37;;
16737;SDS011;17906;47.684;10.806;2022-12-08T08:31:39;11.33;;;4.70;;
16737;SDS011;17906;47.684;10.806;2022-12-08T08:34:05;11.13;;;5.23;;
16737;SDS011;17906;47.684;10.806;2022-12-08T08:36:33;21.07;;;7.10;;
16737;SDS011;17906;47.684;10.806;2022-12-08T08:39:00;16.17;;;6.73;;
16737;SDS011;17906;47.684;10.806;2022-12-08T08:41:27;11.80;;;4.37;;
16737;SDS011;17906;47.684;10.806;2022-12-08T08:43:54;7.53;;;3.37;;
16737;SDS011;17906;47.684;10.806;2022-12-08T08:46:22;8.20;;;3.63;;
16737;SDS011;17906;47.684;10.806;2022-12-08T08:48:48;13.00;;;5.43;;
16737;SDS011;17906;47.684;10.806;2022-12-08T08:51:15;7.80;;;3.83;;
16737;SDS011;17906;47.684;10.806;2022-12-08T08:53:42;6.57;;;3.30;;
16737;SDS011;17906;47.684;10.806;2022-12-08T08:56:09;7.70;;;3.37;;
16737;SDS011;17906;47.684;10.806;2022-12-08T08:58:36;8.03;;;2.57;;
16737;SDS011;17906;47.684;10.806;2022-12-08T09:01:03;4.27;;;2.10;;
16737;SDS011;17906;47.684;10.806;2022-12-08T09:03:31;6.27;;;3.00;;
16737;SDS011;17906;47.684;10.806;2022-12-08T09:05:58;3.37;;;2.10;;
16737;SDS011;17906;47.684;10.806;2022-12-08T09:08:25;4.43;;;2.40;;
16737;SDS011;17906;47.684;10.806;2022-12-08T09:10:53;5.20;;;2.40;;
16737;SDS011;17906;47.684;10.806;2022-12-08T09:13:22;4.17;;;2.23;;
16737;SDS011;17906;47.684;10.806;2022-12-08T09:15:49;4.23;;;2.13;;
16737;SDS011;17906;47.684;10.806;2022-12-08T09:18:15;5.37;;;2.50;;
16737;SDS011;17906;47.684;10.806;2022-12-08T09:20:43;4.33;;;2.70;;
16737;SDS011;17906;47.684;10.806;2022-12-08T09:23:10;5.23;;;2.60;;
16737;SDS011;17906;47.684;10.806;2022-12-08T09:25:37;4.67;;;2.53;;
16737;SDS011;17906;47.684;10.806;2022-12-08T09:28:03;7.90;;;2.10;;
16737;SDS011;17906;47.684;10.806;2022-12-08T09:30:30;5.67;;;2.57;;
16737;SDS011;17906;47.684;10.806;2022-12-08T09:32:57;8.20;;;3.13;;
16737;SDS011;17906;47.684;10.806;2022-12-08T09:35:23;5.80;;;3.00;;
16737;SDS011;17906;47.684;10.806;2022-12-08T09:37:52;5.17;;;2.30;;
16737;SDS011;17906;47.684;10.806;2022-12-08T09:40:20;4.83;;;2.37;;
16737;SDS011;17906;47.684;10.806;2022-12-08T09:42:50;10.60;;;2.67;;
16737;SDS011;17906;47.684;10.806;2022-12-08T09:45:20;6.93;;;3.27;;
16737;SDS011;17906;47.684;10.806;2022-12-08T09:47:53;5.33;;;2.50;;
16737;SDS011;17906;47.684;10.806;2022-12-08T09:50:28;7.43;;;2.73;;
16737;SDS011;17906;47.684;10.806;2022-12-08T09:52:59;10.33;;;3.90;;
16737;SDS011;17906;47.684;10.806;2022-12-08T09:55:35;6.17;;;2.63;;
16737;SDS011;17906;47.684;10.806;2022-12-08T09:58:05;7.73;;;2.93;;
16737;SDS011;17906;47.684;10.806;2022-12-08T10:00:41;5.87;;;2.70;;
16737;SDS011;17906;47.684;10.806;2022-12-08T10:03:08;9.57;;;3.00;;
16737;SDS011;17906;47.684;10.806;2022-12-08T10:05:38;6.10;;;2.50;;
16737;SDS011;17906;47.684;10.806;2022-12-08T10:08:13;4.13;;;2.17;;
16737;SDS011;17906;47.684;10.806;2022-12-08T10:10:46;5.53;;;2.80;;
16737;SDS011;17906;47.684;10.806;2022-12-08T10:13:15;4.40;;;2.43;;
16737;SDS011;17906;47.684;10.806;2022-12-08T10:15:49;4.17;;;2.43;;
16737;SDS011;17906;47.684;10.806;2022-12-08T10:18:26;4.33;;;2.67;;
16737;SDS011;17906;47.684;10.806;2022-12-08T10:20:56;4.70;;;2.87;;
16737;SDS011;17906;47.684;10.806;2022-12-08T10:23:28;6.07;;;3.13;;
16737;SDS011;17906;47.684;10.806;2022-12-08T10:26:00;5.53;;;2.87;;
16737;SDS011;17906;47.684;10.806;2022-12-08T10:28:28;5.63;;;3.00;;
16737;SDS011;17906;47.684;10.806;2022-12-08T10:30:56;5.27;;;3.17;;
16737;SDS011;17906;47.684;10.806;2022-12-08T10:33:22;5.83;;;3.27;;
16737;SDS011;17906;47.684;10.806;2022-12-08T10:35:50;8.20;;;3.60;;
16737;SDS011;17906;47.684;10.806;2022-12-08T10:38:19;6.80;;;3.23;;
16737;SDS011;17906;47.684;10.806;2022-12-08T10:40:50;6.83;;;3.10;;
16737;SDS011;17906;47.684;10.806;2022-12-08T10:43:20;7.03;;;3.30;;
16737;SDS011;17906;47.684;10.806;2022-12-08T10:45:49;8.17;;;3.93;;
16737;SDS011;17906;47.684;10.806;2022-12-08T10:48:17;8.30;;;3.30;;
16737;SDS011;17906;47.684;10.806;2022-12-08T10:50:47;6.43;;;3.43;;
16737;SDS011;17906;47.684;10.806;2022-12-08T10:53:20;8.43;;;4.60;;
16737;SDS011;17906;47.684;10.806;2022-12-08T10:55:50;6.60;;;3.53;;
16737;SDS011;17906;47.684;10.806;2022-12-08T10:58:22;6.23;;;3.37;;
16737;SDS011;17906;47.684;10.806;2022-12-08T11:00:50;5.50;;;3.30;;
16737;SDS011;17906;47.684;10.806;2022-12-08T11:03:21;5.90;;;3.30;;
16737;SDS011;17906;47.684;10.806;2022-12-08T11:05:54;7.13;;;4.30;;
16737;SDS011;17906;47.684;10.806;2022-12-08T11:08:22;9.93;;;5.20;;
16737;SDS011;17906;47.684;10.806;2022-12-08T11:10:51;5.47;;;3.27;;
16737;SDS011;17906;47.684;10.806;2022-12-08T11:13:18;6.80;;;3.33;;
16737;SDS011;17906;47.684;10.806;2022-12-08T11:15:47;7.77;;;3.80;;
16737;SDS011;17906;47.684;10.806;2022-12-08T11:18:26;5.30;;;2.97;;
16737;SDS011;17906;47.684;10.806;2022-12-08T11:20:55;6.97;;;3.47;;
16737;SDS011;17906;47.684;10.806;2022-12-08T11:23:25;6.83;;;3.47;;
16737;SDS011;17906;47.684;10.806;2022-12-08T11:25:56;5.27;;;3.10;;
16737;SDS011;17906;47.684;10.806;2022-12-08T11:28:28;5.60;;;3.00;;
16737;SDS011;17906;47.684;10.806;2022-12-08T11:30:59;5.10;;;3.17;;
16737;SDS011;17906;47.684;10.806;2022-12-08T11:33:31;7.40;;;3.40;;
16737;SDS011;17906;47.684;10.806;2022-12-08T11:36:00;7.70;;;4.10;;
16737;SDS011;17906;47.684;10.806;2022-12-08T11:38:30;6.63;;;3.97;;
16737;SDS011;17906;47.684;10.806;2022-12-08T11:41:02;5.90;;;3.07;;
16737;SDS011;17906;47.684;10.806;2022-12-08T11:43:36;9.77;;;4.50;;
16737;SDS011;17906;47.684;10.806;2022-12-08T11:46:10;8.27;;;4.47;;
16737;SDS011;17906;47.684;10.806;2022-12-08T11:48:41;8.70;;;4.53;;
16737;SDS011;17906;47.684;10.806;2022-12-08T11:51:15;9.97;;;5.27;;
16737;SDS011;17906;47.684;10.806;2022-12-08T11:53:49;10.70;;;5.07;;
16737;SDS011;17906;47.684;10.806;2022-12-08T11:56:28;7.40;;;4.13;;
16737;SDS011;17906;47.684;10.806;2022-12-08T11:59:00;8.17;;;4.00;;
16737;SDS011;17906;47.684;10.806;2022-12-08T12:01:31;8.57;;;3.87;;
16737;SDS011;17906;47.684;10.806;2022-12-08T12:03:58;8.07;;;4.17;;
16737;SDS011;17906;47.684;10.806;2022-12-08T12:06:49;7.77;;;4.20;;
16737;SDS011;17906;47.684;10.806;2022-12-08T12:09:34;8.30;;;3.83;;
16737;SDS011;17906;47.684;10.806;2022-12-08T12:12:14;9.13;;;4.17;;
16737;SDS011;17906;47.684;10.806;2022-12-08T12:15:05;7.90;;;3.90;;
16737;SDS011;17906;47.684;10.806;2022-12-08T12:17:48;8.33;;;3.73;;
16737;SDS011;17906;47.684;10.806;2022-12-08T12:20:18;8.17;;;3.83;;
16737;SDS011;17906;47.684;10.806;2022-12-08T12:22:51;8.67;;;4.20;;
16737;SDS011;17906;47.684;10.806;2022-12-08T12:25:24;6.17;;;3.50;;
16737;SDS011;17906;47.684;10.806;2022-12-08T12:27:55;8.53;;;3.73;;
16737;SDS011;17906;47.684;10.806;2022-12-08T12:30:26;7.23;;;4.10;;
16737;SDS011;17906;47.684;10.806;2022-12-08T12:32:55;7.60;;;3.77;;
16737;SDS011;17906;47.684;10.806;2022-12-08T12:35:31;8.83;;;4.10;;
16737;SDS011;17906;47.684;10.806;2022-12-08T12:38:00;6.93;;;3.90;;
16737;SDS011;17906;47.684;10.806;2022-12-08T12:40:50;8.23;;;4.20;;
16737;SDS011;17906;47.684;10.806;2022-12-08T12:43:28;8.20;;;3.87;;
16737;SDS011;17906;47.684;10.806;2022-12-08T12:49:46;7.93;;;3.97;;
16737;SDS011;17906;47.684;10.806;2022-12-08T12:55:19;6.93;;;3.40;;
16737;SDS011;17906;47.684;10.806;2022-12-08T12:57:50;8.83;;;3.97;;
16737;SDS011;17906;47.684;10.806;2022-12-08T13:00:18;8.30;;;3.87;;
16737;SDS011;17906;47.684;10.806;2022-12-08T13:02:46;7.83;;;3.83;;
16737;SDS011;17906;47.684;10.806;2022-12-08T13:05:14;7.67;;;3.87;;
16737;SDS011;17906;47.684;10.806;2022-12-08T13:07:43;6.67;;;3.70;;
16737;SDS011;17906;47.684;10.806;2022-12-08T13:10:17;6.00;;;3.47;;
16737;SDS011;17906;47.684;10.806;2022-12-08T13:13:00;8.83;;;3.93;;
16737;SDS011;17906;47.684;10.806;2022-12-08T13:15:32;7.60;;;3.53;;
16737;SDS011;17906;47.684;10.806;2022-12-08T13:18:01;10.53;;;3.73;;
16737;SDS011;17906;47.684;10.806;2022-12-08T13:20:28;7.37;;;3.70;;
16737;SDS011;17906;47.684;10.806;2022-12-08T13:23:10;9.77;;;4.00;;
16737;SDS011;17906;47.684;10.806;2022-12-08T13:25:48;8.37;;;4.03;;
16737;SDS011;17906;47.684;10.806;2022-12-08T13:28:20;10.30;;;3.60;;
16737;SDS011;17906;47.684;10.806;2022-12-08T13:30:49;9.03;;;3.90;;
16737;SDS011;17906;47.684;10.806;2022-12-08T13:33:18;9.20;;;4.03;;
16737;SDS011;17906;47.684;10.806;2022-12-08T13:35:54;8.97;;;4.40;;
16737;SDS011;17906;47.684;10.806;2022-12-08T13:38:30;7.70;;;3.70;;
16737;SDS011;17906;47.684;10.806;2022-12-08T13:41:00;7.97;;;4.00;;
16737;SDS011;17906;47.684;10.806;2022-12-08T13:43:35;8.43;;;4.10;;
16737;SDS011;17906;47.684;10.806;2022-12-08T13:46:06;9.10;;;4.27;;
16737;SDS011;17906;47.684;10.806;2022-12-08T13:48:39;9.53;;;3.83;;
16737;SDS011;17906;47.684;10.806;2022-12-08T13:51:13;8.73;;;4.10;;
16737;SDS011;17906;47.684;10.806;2022-12-08T13:53:46;11.07;;;3.97;;
16737;SDS011;17906;47.684;10.806;2022-12-08T13:56:23;8.90;;;4.60;;
16737;SDS011;17906;47.684;10.806;2022-12-08T13:58:53;7.03;;;4.10;;
16737;SDS011;17906;47.684;10.806;2022-12-08T14:01:32;8.90;;;3.90;;
16737;SDS011;17906;47.684;10.806;2022-12-08T14:04:11;9.13;;;4.87;;
16737;SDS011;17906;47.684;10.806;2022-12-08T14:06:41;9.47;;;4.20;;
16737;SDS011;17906;47.684;10.806;2022-12-08T14:09:13;9.83;;;5.23;;
16737;SDS011;17906;47.684;10.806;2022-12-08T14:11:42;8.57;;;3.90;;
16737;SDS011;17906;47.684;10.806;2022-12-08T14:14:13;7.80;;;4.23;;
16737;SDS011;17906;47.684;10.806;2022-12-08T14:16:48;11.50;;;4.40;;
16737;SDS011;17906;47.684;10.806;2022-12-08T14:19:18;9.80;;;4.80;;
16737;SDS011;17906;47.684;10.806;2022-12-08T14:21:50;12.57;;;5.30;;
16737;SDS011;17906;47.684;10.806;2022-12-08T14:24:22;10.17;;;4.80;;
16737;SDS011;17906;47.684;10.806;2022-12-08T14:26:50;9.47;;;4.40;;
16737;SDS011;17906;47.684;10.806;2022-12-08T14:29:32;9.10;;;3.93;;
16737;SDS011;17906;47.684;10.806;2022-12-08T14:32:03;9.80;;;4.47;;
16737;SDS011;17906;47.684;10.806;2022-12-08T14:34:33;7.73;;;4.10;;
16737;SDS011;17906;47.684;10.806;2022-12-08T14:37:04;7.00;;;3.40;;
16737;SDS011;17906;47.684;10.806;2022-12-08T14:39:37;9.07;;;4.33;;
16737;SDS011;17906;47.684;10.806;2022-12-08T14:42:04;8.93;;;4.37;;
16737;SDS011;17906;47.684;10.806;2022-12-08T14:44:32;11.53;;;4.50;;
16737;SDS011;17906;47.684;10.806;2022-12-08T14:47:04;10.23;;;4.57;;
16737;SDS011;17906;47.684;10.806;2022-12-08T14:49:33;9.50;;;4.60;;
16737;SDS011;17906;47.684;10.806;2022-12-08T14:52:00;8.60;;;4.67;;
16737;SDS011;17906;47.684;10.806;2022-12-08T14:54:28;9.50;;;4.80;;